createdAt,value
2023-02-04T01:49:58.720Z,22.09
2023-02-04T01:50:58.663Z,22.09
2023-02-04T01:51:58.618Z,22.09
2023-02-04T01:52:58.584Z,22.09
2023-02-04T01:53:58.550Z,22.10
2023-02-04T01:54:58.519Z,22.09
2023-02-04T01:55:58.473Z,22.10
2023-02-04T01:56:58.427Z,22.10
2023-02-04T01:57:58.380Z,22.09
2023-02-04T01:58:58.350Z,22.08
2023-02-04T01:59:58.297Z,22.09
2023-02-04T02:00:58.297Z,22.09
2023-02-04T02:01:58.278Z,22.08
2023-02-04T02:02:58.219Z,22.09
2023-02-04T02:03:58.154Z,22.08
2023-02-04T02:04:58.104Z,22.07
2023-02-04T02:05:58.074Z,22.07
2023-02-04T02:06:58.040Z,22.06
2023-02-04T02:07:57.993Z,22.06
2023-02-04T02:08:57.955Z,22.06
2023-02-04T02:09:57.905Z,22.05
2023-02-04T02:10:57.864Z,22.05
2023-02-04T02:11:57.829Z,22.06
2023-02-04T02:12:57.829Z,22.05
2023-02-04T05:11:50.538Z,21.77
2023-02-04T05:12:50.490Z,21.78
2023-02-04T05:13:50.470Z,21.78
2023-02-04T05:14:50.430Z,21.79
2023-02-04T05:15:50.380Z,21.79
2023-02-04T05:16:50.364Z,21.81
2023-02-04T05:17:50.302Z,21.81
2023-02-04T05:18:50.262Z,21.82
2023-02-04T05:19:50.229Z,21.81
2023-02-04T05:20:50.178Z,21.82
2023-02-04T05:21:50.145Z,21.83
2023-02-04T05:22:50.098Z,21.84
2023-02-04T05:23:50.073Z,21.84
2023-02-04T05:24:50.022Z,21.84
2023-02-04T05:25:49.972Z,21.84
2023-02-04T05:26:49.938Z,21.85
2023-02-04T05:27:49.989Z,21.86
2023-02-04T05:28:49.887Z,21.86
2023-02-04T05:29:49.859Z,21.85
2023-02-04T05:30:49.826Z,21.86
2023-02-04T05:31:49.808Z,21.86
2023-02-04T05:32:49.706Z,21.86
2023-02-04T05:33:49.674Z,21.86
2023-02-04T05:34:49.648Z,21.86
2023-02-04T05:35:50.032Z,21.87
2023-02-04T05:36:49.541Z,21.86
2023-02-04T05:37:49.503Z,21.87
2023-02-04T05:38:49.474Z,21.88
2023-02-04T05:39:49.446Z,21.89
2023-02-04T05:40:49.409Z,21.89
2023-02-04T05:41:49.375Z,21.89
2023-02-04T05:42:49.320Z,21.90
2023-02-04T05:43:49.289Z,21.90
2023-02-04T05:44:49.244Z,21.90
2023-02-04T05:45:49.257Z,21.91
2023-02-04T05:46:49.179Z,21.91
2023-02-04T05:47:49.124Z,21.91
2023-02-04T05:48:49.088Z,21.91
2023-02-04T05:49:49.061Z,21.92
2023-02-04T05:50:49.044Z,21.91
2023-02-04T05:51:49.078Z,21.92
2023-02-04T05:52:48.914Z,21.92
2023-02-04T05:53:48.886Z,21.92
2023-02-04T05:54:48.820Z,21.92
2023-02-04T05:55:48.781Z,21.93
2023-02-04T05:56:48.752Z,21.93
2023-02-04T05:57:48.715Z,21.94
2023-02-04T05:58:48.663Z,21.93
2023-02-04T05:59:48.641Z,21.94
2023-02-04T06:00:48.588Z,21.95
2023-02-04T06:01:48.552Z,21.94
2023-02-04T06:02:48.529Z,21.95
2023-02-04T06:03:48.490Z,21.94
2023-02-04T06:04:48.458Z,21.94
2023-02-04T06:05:48.403Z,21.93
2023-02-04T06:06:48.397Z,21.94
2023-02-04T06:07:48.315Z,21.94
2023-02-04T06:08:48.288Z,21.94
2023-02-04T06:09:48.252Z,21.95
2023-02-04T06:10:48.206Z,21.94
2023-02-04T06:11:48.197Z,21.94
2023-02-04T06:12:48.121Z,21.95
2023-02-04T06:13:48.094Z,21.95
2023-02-04T06:14:48.065Z,21.94
2023-02-04T06:15:48.000Z,21.94
2023-02-04T06:16:47.996Z,21.94
2023-02-04T06:17:47.951Z,21.94
2023-02-04T06:18:47.899Z,21.94
2023-02-04T06:19:47.876Z,21.95
2023-02-04T06:20:47.829Z,21.94
2023-02-04T06:21:47.781Z,21.93
2023-02-04T06:22:47.751Z,21.95
2023-02-04T06:23:47.704Z,21.95
2023-02-04T06:24:47.681Z,21.95
2023-02-04T06:25:47.623Z,21.95
2023-02-04T06:26:47.598Z,21.95
2023-02-04T06:27:47.588Z,21.96
2023-02-04T06:28:47.506Z,21.95
2023-02-04T06:29:47.471Z,21.96
2023-02-04T06:30:47.525Z,21.96
2023-02-04T06:31:47.562Z,21.97
2023-02-04T06:32:47.370Z,21.96
2023-02-04T06:33:47.333Z,21.96
2023-02-04T06:34:47.304Z,21.96
2023-02-04T06:35:47.265Z,21.96
2023-02-04T06:36:47.241Z,21.96
2023-02-04T06:37:47.210Z,21.96
2023-02-04T06:38:47.148Z,21.96
2023-02-04T06:39:47.117Z,21.97
2023-02-04T06:40:47.078Z,21.96
2023-02-04T06:41:47.051Z,21.96
2023-02-04T06:42:47.014Z,21.96
2023-02-04T06:43:46.974Z,21.96
2023-02-04T06:44:46.934Z,21.96
2023-02-04T06:45:46.974Z,21.96
2023-02-04T06:46:46.878Z,21.97
2023-02-04T06:47:46.823Z,21.97
2023-02-04T06:48:46.788Z,21.96
2023-02-04T06:49:46.747Z,21.97
2023-02-04T06:50:46.698Z,21.97
2023-02-04T06:51:46.674Z,21.97
2023-02-04T06:52:46.637Z,21.98
2023-02-04T06:53:46.578Z,21.99
2023-02-04T06:54:46.538Z,21.98
2023-02-04T06:55:46.500Z,21.98
2023-02-04T06:56:46.454Z,21.99
2023-02-04T06:57:46.416Z,21.98
2023-02-04T06:58:46.383Z,21.98
2023-02-04T06:59:46.323Z,21.98
2023-02-04T07:00:46.281Z,21.98
2023-02-04T07:01:46.320Z,21.97
2023-02-04T07:02:46.375Z,21.97
2023-02-04T07:03:46.162Z,21.98
2023-02-04T07:04:47.730Z,21.98
2023-02-04T07:05:46.073Z,21.98
2023-02-04T07:06:46.034Z,21.99
2023-02-04T07:07:46.005Z,21.99
2023-02-04T07:08:45.966Z,21.99
2023-02-04T07:09:45.923Z,21.99
2023-02-04T07:10:45.900Z,21.99
2023-02-04T07:11:45.870Z,21.99
2023-02-04T07:12:45.810Z,21.98
2023-02-04T07:13:45.787Z,21.98
2023-02-04T07:14:45.738Z,21.98
2023-02-04T07:15:45.731Z,21.99
2023-02-04T07:16:45.666Z,21.98
2023-02-04T07:17:45.633Z,21.98
2023-02-04T07:18:45.606Z,21.98
2023-02-04T07:19:45.571Z,21.99
2023-02-04T07:20:45.531Z,21.99
2023-02-04T07:21:45.501Z,21.99
2023-02-04T07:22:45.472Z,22.00
2023-02-04T07:23:45.418Z,22.00
2023-02-04T07:24:45.375Z,22.00
2023-02-04T07:25:45.344Z,22.00
2023-02-04T07:26:45.310Z,21.99
2023-02-04T07:27:45.314Z,21.99
2023-02-04T07:28:45.241Z,22.00
2023-02-04T07:29:45.216Z,22.00
2023-02-04T07:30:45.202Z,22.01
2023-02-04T07:31:45.290Z,22.00
2023-02-04T07:32:45.104Z,22.00
2023-02-04T07:33:45.052Z,22.01
2023-02-04T07:34:45.007Z,22.01
2023-02-04T07:35:44.986Z,22.00
2023-02-04T07:36:44.958Z,21.99
2023-02-04T07:37:44.903Z,21.99
2023-02-04T07:38:44.855Z,21.99
2023-02-04T07:39:44.821Z,21.99
2023-02-04T07:40:44.794Z,21.98
2023-02-04T07:41:44.750Z,21.99
2023-02-04T07:42:44.709Z,22.00
2023-02-04T07:43:44.671Z,22.01
2023-02-04T07:44:44.627Z,22.02
2023-02-04T07:45:44.637Z,22.02
2023-02-04T07:46:44.657Z,22.03
2023-02-04T07:47:44.505Z,22.03
2023-02-04T07:48:44.463Z,22.02
2023-02-04T07:49:44.426Z,22.02
2023-02-04T07:50:44.367Z,22.02
2023-02-04T07:51:44.335Z,22.03
2023-02-04T07:52:44.297Z,22.03
2023-02-04T07:53:44.255Z,22.03
2023-02-04T07:54:44.218Z,22.02
2023-02-04T07:55:44.180Z,22.02
2023-02-04T07:56:44.140Z,22.03
2023-02-04T07:57:44.099Z,22.03
2023-02-04T07:58:44.057Z,22.04
2023-02-04T07:59:44.018Z,22.05
2023-02-04T08:00:43.966Z,22.06
2023-02-04T08:01:43.951Z,22.07
2023-02-04T08:02:43.929Z,22.09
2023-02-04T08:03:43.850Z,22.09
2023-02-04T08:04:43.796Z,22.09
2023-02-04T08:05:43.759Z,22.07
2023-02-04T08:06:43.720Z,22.07
2023-02-04T08:07:43.675Z,22.06
2023-02-04T08:08:43.643Z,22.06
2023-02-04T08:09:43.606Z,22.05
2023-02-04T08:10:43.560Z,22.03
2023-02-04T08:11:43.519Z,22.02
2023-02-04T08:12:43.478Z,22.02
2023-02-04T08:13:43.453Z,22.02
2023-02-04T08:14:43.397Z,22.02
2023-02-04T08:15:43.360Z,22.00
2023-02-04T08:16:43.308Z,22.00
2023-02-04T08:17:43.267Z,21.99
2023-02-04T08:18:43.234Z,21.99
2023-02-04T08:19:43.180Z,21.98
2023-02-04T08:20:43.147Z,21.98
2023-02-04T08:21:43.099Z,21.99
2023-02-04T08:22:43.058Z,21.99
2023-02-04T08:23:43.010Z,21.98
2023-02-04T08:24:42.974Z,21.97
2023-02-04T08:25:42.932Z,21.97
2023-02-04T08:26:42.880Z,21.98
2023-02-04T08:27:42.912Z,21.98
2023-02-04T08:28:42.798Z,22.01
2023-02-04T08:29:42.755Z,22.02
2023-02-04T08:30:42.736Z,22.01
2023-02-04T08:31:42.714Z,22.03
2023-02-04T08:32:42.628Z,22.02
2023-02-04T08:33:42.577Z,22.01
2023-02-04T08:34:42.547Z,22.00
2023-02-04T08:35:42.487Z,21.99
2023-02-04T08:36:42.443Z,22.00
2023-02-04T08:37:42.395Z,21.99
2023-02-04T08:38:42.340Z,22.01
2023-02-04T08:39:42.302Z,22.02
2023-02-04T08:40:42.254Z,22.02
2023-02-04T08:41:42.217Z,22.02
2023-02-04T08:42:42.186Z,22.03
2023-02-04T08:43:42.125Z,22.02
2023-02-04T08:44:42.090Z,22.03
2023-02-04T08:45:42.042Z,22.02
2023-02-04T08:46:42.032Z,22.02
2023-02-04T08:47:41.965Z,22.02
2023-02-04T08:48:41.922Z,22.02
2023-02-04T08:49:41.889Z,22.07
2023-02-04T08:50:41.842Z,22.10
2023-02-04T08:51:41.804Z,22.11
2023-02-04T08:52:41.764Z,22.15
2023-02-04T08:53:41.709Z,22.22
2023-02-04T08:54:41.676Z,22.28
2023-02-04T08:55:41.636Z,22.32
2023-02-04T08:56:41.582Z,22.29
2023-02-04T08:57:41.549Z,22.27
2023-02-04T08:58:41.506Z,22.24
2023-02-04T08:59:41.464Z,22.23
2023-02-04T09:00:41.443Z,22.24
2023-02-04T09:01:41.431Z,22.26
2023-02-04T09:02:41.346Z,22.28
2023-02-04T09:03:41.306Z,22.27
2023-02-04T09:04:41.291Z,22.25
2023-02-04T09:05:41.217Z,22.25
2023-02-04T09:06:41.170Z,22.24
2023-02-04T09:07:41.138Z,22.25
2023-02-04T09:08:41.099Z,22.25
2023-02-04T09:09:41.061Z,22.24
2023-02-04T09:10:41.021Z,22.25
2023-02-04T09:11:40.974Z,22.26
2023-02-04T09:12:40.931Z,22.31
2023-02-04T09:13:40.894Z,22.37
2023-02-04T09:14:40.842Z,22.41
2023-02-04T09:15:41.184Z,22.39
2023-02-04T09:16:40.786Z,22.38
2023-02-04T09:17:40.720Z,22.38
2023-02-04T09:18:40.704Z,22.36
2023-02-04T09:19:40.632Z,22.34
2023-02-04T09:20:40.587Z,22.32
2023-02-04T09:21:40.533Z,22.31
2023-02-04T09:22:40.479Z,22.31
2023-02-04T09:23:40.449Z,22.30
2023-02-04T09:24:40.410Z,22.32
2023-02-04T09:25:40.362Z,22.33
2023-02-04T09:26:40.302Z,22.41
2023-02-04T09:27:40.317Z,22.47
2023-02-04T09:28:40.214Z,22.49
2023-02-04T09:29:40.156Z,22.50
2023-02-04T09:30:40.143Z,22.53
2023-02-04T09:31:40.120Z,22.56
2023-02-04T09:32:40.024Z,22.53
2023-02-04T09:33:40.026Z,22.57
2023-02-04T09:34:39.926Z,22.56
2023-02-04T09:35:39.880Z,22.58
2023-02-04T09:36:39.843Z,22.56
2023-02-04T09:37:39.784Z,22.63
2023-02-04T09:38:39.739Z,22.61
2023-02-04T09:39:39.687Z,22.64
2023-02-04T09:40:39.669Z,22.61
2023-02-04T09:41:40.022Z,22.62
2023-02-04T09:42:39.550Z,22.62
2023-02-04T09:43:39.489Z,22.61
2023-02-04T09:44:39.451Z,22.61
2023-02-04T09:45:39.465Z,22.61
2023-02-04T09:46:39.368Z,22.65
2023-02-04T09:47:39.316Z,22.65
2023-02-04T09:48:39.265Z,22.62
2023-02-04T09:49:39.233Z,22.59
2023-02-04T09:50:39.172Z,22.57
2023-02-04T09:51:39.133Z,22.55
2023-02-04T09:52:39.076Z,22.57
2023-02-04T09:53:39.039Z,22.55
2023-02-04T09:54:39.009Z,22.54
2023-02-04T09:55:38.940Z,22.53
2023-02-04T09:56:38.894Z,22.52
2023-02-04T09:57:38.832Z,22.52
2023-02-04T09:58:38.792Z,22.53
2023-02-04T09:59:38.726Z,22.52
2023-02-04T10:00:38.699Z,22.53
2023-02-04T10:01:38.630Z,22.56
2023-02-04T10:02:38.590Z,22.58
2023-02-04T10:03:38.585Z,22.69
2023-02-04T10:04:38.511Z,22.74
2023-02-04T10:05:38.473Z,22.71
2023-02-04T10:06:38.417Z,22.67
2023-02-04T10:07:38.358Z,22.63
2023-02-04T10:08:38.316Z,22.60
2023-02-04T10:09:38.287Z,22.58
2023-02-04T10:10:38.221Z,22.59
2023-02-04T10:11:38.187Z,22.71
2023-02-04T10:12:38.119Z,22.69
2023-02-04T10:13:38.081Z,22.66
2023-02-04T10:14:38.026Z,22.63
2023-02-04T10:15:38.003Z,22.60
2023-02-04T10:16:38.043Z,22.62
2023-02-04T10:17:37.887Z,22.63
2023-02-04T10:18:37.818Z,22.62
2023-02-04T12:39:28.921Z,23.26
2023-02-04T12:40:28.862Z,23.22
2023-02-04T12:41:28.821Z,23.20
2023-02-04T12:42:28.820Z,23.22
2023-02-04T12:43:28.705Z,23.21
2023-02-04T12:44:28.609Z,23.16
2023-02-04T12:45:28.562Z,23.14
2023-02-04T12:46:28.538Z,23.11
2023-02-04T12:47:28.437Z,23.06
2023-02-04T12:48:28.465Z,23.03
2023-02-04T12:49:28.343Z,23.03
2023-02-04T12:50:28.267Z,23.01
2023-02-04T12:51:28.206Z,23.00
2023-02-04T12:52:28.144Z,23.01
2023-02-04T12:53:28.088Z,22.99
2023-02-04T12:54:28.023Z,22.98
2023-02-04T12:55:27.967Z,22.98
2023-02-04T12:56:27.903Z,22.97
2023-02-04T12:57:27.845Z,22.96
2023-02-04T12:58:27.848Z,22.97
2023-02-04T15:30:19.466Z,22.47
2023-02-04T15:31:19.539Z,22.47
2023-02-04T15:32:19.392Z,22.46
2023-02-04T15:33:19.314Z,22.46
2023-02-04T15:34:19.268Z,22.47
2023-02-04T15:35:19.252Z,22.46
2023-02-04T15:36:19.167Z,22.46
2023-02-04T15:37:19.108Z,22.45
2023-02-04T15:38:19.061Z,22.46
2023-02-04T15:39:19.010Z,22.46
2023-02-04T15:40:18.945Z,22.44
2023-02-04T15:42:18.855Z,22.43
2023-02-04T15:44:18.743Z,22.43
2023-02-04T15:45:18.694Z,22.42
2023-02-04T15:46:18.680Z,22.42
2023-02-04T15:47:18.576Z,22.42
2023-02-04T15:48:18.530Z,22.41
2023-02-04T15:49:18.478Z,22.40
2023-02-04T15:50:18.427Z,22.40
2023-02-04T15:51:18.388Z,22.39
2023-02-04T15:52:24.584Z,22.39
2023-02-04T15:53:19.283Z,22.38
2023-02-04T15:54:18.250Z,22.37
2023-02-04T15:55:18.270Z,22.36
2023-02-04T15:56:18.129Z,22.37
2023-02-04T15:57:18.085Z,22.36
2023-02-04T15:58:18.030Z,22.36
2023-02-04T15:59:18.002Z,22.36
2023-02-04T16:00:17.939Z,22.36
2023-02-04T16:01:17.933Z,22.36
2023-02-04T16:02:17.874Z,22.35
2023-02-04T17:28:13.888Z,22.05
2023-02-04T17:39:13.488Z,22.02
2023-02-04T17:57:12.729Z,22.00
2023-02-04T18:06:14.116Z,21.98
2023-02-04T18:07:12.302Z,21.99
2023-02-04T18:08:12.271Z,21.99
2023-02-04T18:09:12.238Z,21.99
2023-02-04T18:10:12.174Z,21.99
2023-02-04T18:11:12.138Z,21.99
2023-02-04T18:12:12.090Z,22.00
2023-02-04T18:13:12.047Z,22.00
2023-02-04T18:14:12.014Z,22.00
2023-02-04T18:15:11.973Z,22.03
2023-02-04T18:16:11.964Z,22.03
2023-02-04T18:17:11.889Z,22.04
2023-02-04T18:18:11.853Z,22.03
2023-02-04T18:19:11.816Z,22.03
2023-02-04T18:20:11.787Z,22.02
2023-02-04T18:21:11.743Z,22.02
2023-02-04T18:22:11.699Z,22.02
2023-02-04T18:23:11.653Z,22.01
2023-02-04T18:24:11.608Z,22.01
2023-02-04T18:25:11.585Z,22.01
2023-02-04T18:26:11.516Z,22.02
2023-02-04T18:27:11.459Z,22.02
2023-02-04T18:28:11.509Z,22.02
2023-02-04T18:29:11.385Z,22.02
2023-02-04T18:30:11.366Z,22.02
2023-02-04T18:31:11.317Z,22.02
2023-02-04T18:32:11.230Z,22.00
2023-02-04T18:33:11.179Z,21.99
2023-02-04T18:34:11.129Z,21.99
2023-02-04T18:35:11.085Z,21.99
2023-02-04T18:36:11.051Z,21.99
2023-02-04T18:37:11.006Z,21.98
2023-02-04T18:38:10.948Z,21.97
2023-02-04T18:39:10.909Z,21.97
2023-02-04T18:40:10.870Z,21.97
2023-02-04T18:41:10.824Z,21.97
2023-02-04T18:42:10.783Z,21.96
2023-02-04T18:43:10.740Z,21.97
2023-02-04T18:44:10.693Z,21.98
2023-02-04T18:45:10.651Z,21.99
2023-02-04T18:46:10.638Z,21.97
2023-02-04T18:47:10.562Z,21.98
2023-02-04T18:48:10.526Z,21.98
2023-02-04T18:49:10.474Z,21.98
2023-02-04T18:50:10.433Z,21.96
2023-02-04T18:51:10.385Z,21.97
2023-02-04T18:52:10.352Z,21.97
2023-02-04T18:53:10.296Z,21.97
2023-02-04T18:54:10.256Z,21.96
2023-02-04T18:55:10.225Z,21.96
2023-02-04T18:56:10.188Z,21.97
2023-02-04T18:57:10.142Z,21.98
2023-02-04T18:58:12.155Z,21.97
2023-02-04T18:59:10.064Z,21.96
2023-02-04T19:00:10.026Z,21.96
2023-02-04T19:01:10.032Z,21.96
2023-02-04T19:02:09.941Z,21.96
2023-02-04T19:03:09.891Z,21.97
2023-02-04T19:04:09.851Z,21.96
2023-02-04T19:05:13.648Z,21.98
2023-02-04T19:06:09.787Z,21.97
2023-02-04T19:07:09.738Z,21.96
2023-02-04T19:08:09.697Z,21.95
2023-02-04T19:09:09.659Z,21.95
2023-02-04T19:10:09.611Z,21.95
2023-02-04T19:11:09.570Z,21.96
2023-02-04T19:12:09.530Z,21.96
2023-02-04T19:13:09.490Z,21.98
2023-02-04T19:14:09.457Z,21.97
2023-02-04T19:15:09.410Z,21.97
2023-02-04T19:16:09.434Z,21.96
2023-02-04T19:17:09.336Z,21.96
2023-02-04T19:18:09.300Z,21.96
2023-02-04T19:19:09.257Z,21.96
2023-02-04T19:20:09.227Z,21.96
2023-02-04T19:21:09.199Z,21.96
2023-02-04T19:22:09.141Z,21.97
2023-02-04T19:23:09.107Z,21.97
2023-02-04T19:24:09.067Z,21.97
2023-02-04T19:25:09.040Z,21.97
2023-02-04T19:26:08.986Z,21.95
2023-02-04T19:27:08.940Z,21.97
2023-02-04T19:28:08.980Z,21.98
2023-02-04T19:29:08.865Z,21.97
2023-02-04T19:30:08.861Z,21.95
2023-02-04T19:31:09.409Z,21.95
2023-02-04T19:32:08.741Z,21.97
2023-02-04T19:33:08.706Z,21.97
2023-02-04T19:34:08.667Z,21.96
2023-02-04T19:35:08.611Z,21.95
2023-02-04T19:36:08.580Z,21.96
2023-02-04T19:37:08.533Z,21.95
2023-02-04T19:38:08.499Z,21.97
2023-02-04T19:39:08.451Z,21.95
2023-02-04T19:40:08.402Z,21.95
2023-02-04T19:41:08.364Z,21.94
2023-02-04T19:42:08.328Z,21.94
2023-02-04T19:43:08.281Z,21.94
2023-02-04T19:44:08.248Z,21.94
2023-02-04T19:45:08.190Z,21.94
2023-02-04T19:46:08.163Z,21.94
2023-02-04T19:47:08.109Z,21.94
2023-02-04T19:48:08.058Z,21.94
2023-02-04T19:49:08.028Z,21.94
2023-02-04T19:50:08.010Z,21.94
2023-02-04T19:51:07.943Z,21.94
2023-02-04T19:52:07.908Z,21.95
2023-02-04T19:53:07.856Z,21.94
2023-02-04T19:58:07.642Z,21.94
2023-02-04T19:59:07.592Z,21.94
2023-02-04T20:00:07.552Z,21.93
2023-02-04T20:01:07.545Z,21.92
2023-02-04T20:02:07.560Z,21.91
2023-02-04T20:03:07.431Z,21.91
2023-02-04T20:04:07.398Z,21.91
2023-02-04T20:05:07.354Z,21.89
2023-02-04T20:06:07.313Z,21.90
2023-02-04T20:07:07.286Z,21.89
2023-02-04T20:08:07.239Z,21.90
2023-02-04T20:09:07.206Z,21.89
2023-02-04T20:10:07.164Z,21.90
2023-02-04T20:11:07.125Z,21.91
2023-02-04T20:12:07.098Z,21.91
2023-02-04T20:13:07.050Z,21.91
2023-02-04T20:14:07.021Z,21.91
2023-02-04T20:15:06.976Z,21.91
2023-02-04T20:16:06.928Z,21.90
2023-02-04T20:17:06.903Z,21.90
2023-02-04T20:18:06.863Z,21.91
2023-02-04T20:19:06.815Z,21.89
2023-02-04T20:20:06.785Z,21.89
2023-02-04T20:21:06.754Z,21.89
2023-02-04T20:22:06.710Z,21.90
2023-02-04T20:23:06.667Z,21.90
2023-02-04T20:24:06.633Z,21.87
2023-02-04T20:25:06.586Z,21.84
2023-02-04T20:26:06.557Z,21.82
2023-02-04T20:27:06.520Z,21.81
2023-02-04T20:28:06.534Z,21.81
2023-02-04T20:29:06.444Z,21.82
2023-02-04T20:30:06.413Z,21.79
2023-02-04T20:31:06.466Z,21.78
2023-02-04T20:32:06.900Z,21.78
2023-02-04T20:33:06.329Z,21.80
2023-02-04T20:34:06.272Z,21.80
2023-02-04T20:35:06.224Z,21.77
2023-02-04T20:36:06.194Z,21.76
2023-02-04T20:37:06.158Z,21.75
2023-02-04T20:38:06.129Z,21.75
2023-02-04T20:39:06.082Z,21.76
2023-02-04T20:40:06.057Z,21.77
2023-02-04T20:41:06.009Z,21.75
2023-02-04T20:42:05.988Z,21.75
2023-02-04T20:43:05.932Z,21.74
2023-02-04T20:44:05.896Z,21.74
2023-02-04T20:45:05.862Z,21.76
2023-02-04T20:46:05.903Z,21.76
2023-02-04T20:47:05.781Z,21.73
2023-02-04T20:48:05.752Z,21.73
2023-02-04T20:49:05.708Z,21.72
2023-02-04T20:50:05.680Z,21.74
2023-02-04T20:51:05.647Z,21.76
2023-02-04T20:52:05.613Z,21.73
2023-02-04T20:53:05.586Z,21.71
2023-02-04T20:54:05.550Z,21.69
2023-02-04T20:55:05.514Z,21.69
2023-02-04T20:56:05.491Z,21.71
2023-02-04T20:57:05.451Z,21.73
2023-02-04T20:58:05.417Z,21.72
2023-02-04T20:59:05.380Z,21.70
2023-02-04T21:00:05.344Z,21.69
2023-02-04T21:01:05.355Z,21.70
2023-02-04T21:02:05.269Z,21.72
2023-02-04T21:03:05.237Z,21.70
2023-02-04T21:04:05.191Z,21.69
2023-02-04T21:05:05.159Z,21.69
2023-02-04T21:06:05.119Z,21.69
2023-02-04T21:07:05.086Z,21.70
2023-02-04T21:08:05.054Z,21.71
2023-02-04T21:09:05.005Z,21.70
2023-02-04T21:10:04.992Z,21.70
2023-02-04T21:11:04.950Z,21.68
2023-02-04T21:12:04.897Z,21.69
2023-02-04T21:13:04.867Z,21.69
2023-02-04T21:14:04.835Z,21.70
2023-02-04T21:15:04.808Z,21.68
2023-02-04T21:16:04.787Z,21.67
2023-02-04T21:17:04.763Z,21.66
2023-02-04T21:18:04.725Z,21.67
2023-02-04T21:19:04.745Z,21.68
2023-02-04T21:20:04.642Z,21.67
2023-02-04T21:21:04.721Z,21.67
2023-02-04T21:22:04.587Z,21.65
2023-02-04T21:23:04.592Z,21.66
2023-02-04T21:24:04.485Z,21.67
2023-02-04T21:25:04.444Z,21.68
2023-02-04T21:26:04.434Z,21.66
2023-02-04T21:27:04.406Z,21.63
2023-02-04T21:28:04.376Z,21.63
2023-02-04T21:29:04.309Z,21.62
2023-02-04T21:30:04.273Z,21.65
2023-02-04T21:31:04.376Z,21.66
2023-02-04T21:32:04.216Z,21.63
2023-02-04T21:33:04.196Z,21.61
2023-02-04T21:34:04.146Z,21.60
2023-02-04T21:35:04.135Z,21.62
2023-02-04T21:36:04.077Z,21.62
2023-02-04T21:37:04.047Z,21.63
2023-02-04T21:38:04.021Z,21.62
2023-02-04T21:39:03.988Z,21.61
2023-02-04T21:40:03.947Z,21.58
2023-02-04T21:41:03.915Z,21.60
2023-02-04T21:42:03.881Z,21.62
2023-02-04T21:43:03.854Z,21.60
2023-02-04T21:44:03.824Z,21.59
2023-02-04T21:45:03.800Z,21.58
2023-02-04T21:46:03.781Z,21.59
2023-02-04T21:47:03.736Z,21.61
2023-02-04T21:48:03.730Z,21.63
2023-02-04T21:49:03.668Z,21.61
2023-02-04T21:50:03.668Z,21.60
2023-02-04T21:51:03.626Z,21.61
2023-02-04T21:52:03.555Z,21.61
2023-02-04T21:53:03.532Z,21.62
2023-02-04T21:54:03.510Z,21.63
2023-02-04T21:55:03.496Z,21.59
2023-02-04T21:56:03.443Z,21.59
2023-02-04T21:57:03.412Z,21.60
2023-02-04T21:58:03.402Z,21.62
2023-02-04T21:59:03.355Z,21.63
2023-02-04T22:00:03.324Z,21.62
2023-02-04T22:01:03.288Z,21.60
2023-02-04T22:02:03.255Z,21.58
2023-02-04T22:03:03.240Z,21.58
2023-02-04T22:04:03.205Z,21.59
2023-02-04T22:05:03.167Z,21.60
2023-02-04T22:06:03.133Z,21.57
2023-02-04T22:07:03.113Z,21.56
2023-02-04T22:08:03.071Z,21.56
2023-02-04T22:09:03.038Z,21.57
2023-02-04T22:10:03.016Z,21.59
2023-02-04T22:11:02.989Z,21.60
2023-02-04T22:12:02.956Z,21.57
2023-02-04T22:13:02.914Z,21.55
2023-02-04T22:14:02.893Z,21.56
2023-02-04T22:15:04.358Z,21.58
2023-02-04T22:16:02.884Z,21.58
2023-02-04T22:17:02.799Z,21.57
2023-02-04T22:18:02.760Z,21.55
2023-02-04T22:19:02.738Z,21.54
2023-02-04T22:20:02.712Z,21.54
2023-02-04T22:21:02.667Z,21.55
2023-02-04T22:22:02.638Z,21.56
2023-02-04T22:23:02.610Z,21.55
2023-02-04T22:24:02.589Z,21.54
2023-02-04T22:25:02.595Z,21.54
2023-02-04T22:26:02.525Z,21.54
2023-02-04T22:27:02.494Z,21.55
2023-02-04T22:28:02.596Z,21.55
2023-02-04T22:29:02.450Z,21.51
2023-02-04T22:30:02.443Z,21.51
2023-02-04T22:31:02.490Z,21.50
2023-02-04T22:32:02.362Z,21.51
2023-02-04T22:33:02.339Z,21.52
2023-02-04T22:34:02.309Z,21.52
2023-02-04T22:35:02.279Z,21.51
2023-02-04T22:36:02.245Z,21.51
2023-02-04T22:37:02.268Z,21.51
2023-02-04T22:38:02.335Z,21.52
2023-02-04T22:39:02.186Z,21.54
2023-02-04T22:40:02.152Z,21.52
2023-02-04T22:41:02.104Z,21.50
2023-02-04T22:42:02.121Z,21.51
2023-02-04T22:43:02.058Z,21.51
2023-02-04T22:44:02.012Z,21.52
2023-02-04T22:45:01.981Z,21.53
2023-02-04T22:46:01.952Z,21.51
2023-02-04T22:47:01.966Z,21.51
2023-02-04T22:48:01.880Z,21.51
2023-02-04T22:49:01.847Z,21.52
2023-02-04T22:50:01.818Z,21.53
2023-02-04T22:51:01.783Z,21.53
2023-02-04T22:52:01.750Z,21.50
2023-02-04T22:53:01.714Z,21.50
2023-02-04T22:54:01.697Z,21.49
2023-02-04T22:55:01.662Z,21.50
2023-02-04T22:56:01.646Z,21.51
2023-02-04T22:57:01.610Z,21.50
2023-02-04T22:58:01.564Z,21.49
2023-02-04T22:59:01.542Z,21.49
2023-02-04T23:00:01.564Z,21.50
2023-02-04T23:01:01.536Z,21.50
2023-02-04T23:02:01.436Z,21.51
2023-02-04T23:03:01.395Z,21.51
2023-02-04T23:04:01.376Z,21.50
2023-02-04T23:05:01.331Z,21.51
2023-02-04T23:06:01.294Z,21.51
2023-02-04T23:07:01.274Z,21.52
2023-02-04T23:08:01.227Z,21.51
2023-02-04T23:09:01.197Z,21.50
2023-02-04T23:10:01.175Z,21.50
2023-02-04T23:11:01.136Z,21.50
2023-02-04T23:12:01.092Z,21.49
2023-02-04T23:13:01.069Z,21.51
2023-02-04T23:14:01.032Z,21.49
2023-02-04T23:15:01.013Z,21.48
2023-02-04T23:16:01.030Z,21.47
2023-02-04T23:17:00.957Z,21.47
2023-02-04T23:18:00.930Z,21.47
2023-02-04T23:19:00.897Z,21.48
2023-02-04T23:20:00.860Z,21.47
2023-02-04T23:21:00.831Z,21.46
2023-02-04T23:22:00.823Z,21.45
2023-02-04T23:23:00.764Z,21.46
2023-02-04T23:24:00.732Z,21.48
2023-02-04T23:25:00.727Z,21.48
2023-02-04T23:26:00.675Z,21.47
2023-02-04T23:27:00.671Z,21.46
2023-02-04T23:28:00.657Z,21.48
2023-02-04T23:29:00.603Z,21.49
2023-02-04T23:30:00.574Z,21.50
2023-02-04T23:31:00.598Z,21.49
2023-02-04T23:32:00.534Z,21.47
2023-02-04T23:33:00.498Z,21.46
2023-02-04T23:34:00.453Z,21.47
2023-02-04T23:35:00.447Z,21.47
2023-02-04T23:36:00.407Z,21.48
2023-02-04T23:37:00.376Z,21.46
2023-02-04T23:38:00.347Z,21.45
2023-02-04T23:39:00.325Z,21.45
2023-02-04T23:40:00.288Z,21.46
2023-02-04T23:41:00.265Z,21.47
2023-02-04T23:42:00.225Z,21.48
2023-02-04T23:43:00.200Z,21.46
2023-02-04T23:44:00.190Z,21.43
2023-02-04T23:45:00.177Z,21.43
2023-02-04T23:46:00.332Z,21.45
2023-02-04T23:47:00.102Z,21.46
2023-02-04T23:48:00.062Z,21.45
2023-02-04T23:49:00.036Z,21.44
2023-02-04T23:49:59.991Z,21.45
2023-02-04T23:50:59.962Z,21.46
2023-02-04T23:51:59.928Z,21.46
2023-02-04T23:52:59.900Z,21.49
2023-02-04T23:53:59.882Z,21.46
2023-02-04T23:54:59.846Z,21.46
2023-02-04T23:55:59.843Z,21.46
2023-02-04T23:56:59.782Z,21.47
2023-02-04T23:57:59.746Z,21.49
2023-02-04T23:58:59.715Z,21.48
2023-02-04T23:59:59.700Z,21.46
